createdAt,value
2019-03-27T00:00:43.803Z,36.79
2019-03-27T00:01:43.796Z,36.89
2019-03-27T00:02:43.782Z,37.32
2019-03-27T00:03:43.769Z,37.50
2019-03-27T00:04:43.763Z,37.21
2019-03-27T00:05:43.746Z,37.50
2019-03-27T00:06:43.735Z,37.32
2019-03-27T00:07:43.724Z,37.83
2019-03-27T00:08:43.719Z,36.70
2019-03-27T00:09:43.702Z,37.52
2019-03-27T00:10:43.694Z,37.41
2019-03-27T00:11:43.680Z,37.93
2019-03-27T00:12:43.671Z,37.11
2019-03-27T00:13:43.674Z,36.89
2019-03-27T00:14:43.651Z,36.70
2019-03-27T00:15:43.639Z,37.32
2019-03-27T00:16:43.628Z,38.03
2019-03-27T00:17:43.614Z,37.83
2019-03-27T00:18:43.609Z,37.62
2019-03-27T00:19:43.599Z,37.83
2019-03-27T00:20:43.582Z,37.91
2019-03-27T00:21:43.571Z,37.60
2019-03-27T00:22:43.559Z,37.50
2019-03-27T00:23:43.567Z,37.50
2019-03-27T00:24:43.537Z,37.60
2019-03-27T00:25:43.526Z,38.03
2019-03-27T00:26:43.520Z,37.93
2019-03-27T00:27:43.507Z,37.50
2019-03-27T00:28:43.492Z,38.03
2019-03-27T00:29:43.480Z,38.97
2019-03-27T00:30:43.471Z,39.67
2019-03-27T00:31:43.462Z,39.16
2019-03-27T00:32:43.449Z,38.54
2019-03-27T00:33:43.437Z,37.83
2019-03-27T00:34:43.427Z,38.24
2019-03-27T00:35:43.418Z,38.75
2019-03-27T00:36:43.407Z,39.16
2019-03-27T00:37:43.398Z,38.87
2019-03-27T00:38:43.385Z,39.39
2019-03-27T00:39:43.376Z,38.85
2019-03-27T00:40:43.363Z,39.79
2019-03-27T00:41:43.352Z,38.75
2019-03-27T00:42:43.340Z,38.95
2019-03-27T00:43:43.331Z,39.57
2019-03-27T00:44:43.321Z,38.97
2019-03-27T00:45:43.314Z,39.67
2019-03-27T00:46:43.300Z,40.10
2019-03-27T00:47:43.289Z,39.87
2019-03-27T00:48:43.275Z,40.20
2019-03-27T00:49:43.284Z,39.90
2019-03-27T00:50:43.251Z,40.00
2019-03-27T00:51:43.243Z,40.43
2019-03-27T00:52:43.230Z,41.27
2019-03-27T00:53:43.220Z,40.84
2019-03-27T00:54:43.207Z,41.47
2019-03-27T00:55:43.201Z,41.47
2019-03-27T00:56:43.187Z,41.35
2019-03-27T00:57:43.173Z,40.31
2019-03-27T00:58:43.167Z,41.13
2019-03-27T00:59:43.153Z,40.94
2019-03-27T01:00:43.144Z,41.05
2019-03-27T01:01:43.137Z,41.14
2019-03-27T01:02:43.122Z,41.53
2019-03-27T01:03:43.110Z,41.35
2019-03-27T01:04:43.099Z,40.72
2019-03-27T01:05:43.093Z,41.33
2019-03-27T01:06:43.080Z,41.53
2019-03-27T01:07:43.068Z,41.44
2019-03-27T01:08:43.138Z,41.76
2019-03-27T01:09:43.051Z,41.86
2019-03-27T01:10:43.034Z,42.07
2019-03-27T01:11:43.023Z,42.58
2019-03-27T01:12:43.018Z,42.69
2019-03-27T01:13:43.007Z,42.58
2019-03-27T01:14:42.989Z,42.50
2019-03-27T01:15:42.981Z,43.01
2019-03-27T01:16:42.971Z,43.42
2019-03-27T01:17:42.958Z,43.32
2019-03-27T01:18:42.943Z,43.52
2019-03-27T01:19:42.934Z,43.42
2019-03-27T01:20:42.922Z,42.99
2019-03-27T01:21:42.912Z,42.79
2019-03-27T01:22:42.900Z,42.71
2019-03-27T01:23:42.892Z,42.91
2019-03-27T01:24:42.879Z,42.91
2019-03-27T01:25:42.867Z,43.12
2019-03-27T01:26:42.859Z,43.32
2019-03-27T01:27:42.850Z,43.42
2019-03-27T01:28:42.842Z,43.32
2019-03-27T01:29:42.823Z,43.42
2019-03-27T01:30:42.815Z,43.52
2019-03-27T01:31:42.801Z,43.84
2019-03-27T01:32:42.864Z,43.94
2019-03-27T01:33:42.784Z,43.84
2019-03-27T01:34:42.772Z,44.04
2019-03-27T01:35:42.766Z,43.84
2019-03-27T01:36:42.753Z,43.81
2019-03-27T01:37:42.741Z,43.51
2019-03-27T01:38:42.724Z,44.04
2019-03-27T01:39:42.720Z,44.56
2019-03-27T01:40:42.707Z,44.14
2019-03-27T01:41:42.694Z,44.35
2019-03-27T01:42:42.683Z,44.76
2019-03-27T01:43:42.670Z,44.56
2019-03-27T01:44:42.660Z,44.14
2019-03-27T01:45:52.507Z,44.04
2019-03-27T01:46:43.639Z,44.56
2019-03-27T01:47:42.634Z,44.04
2019-03-27T01:48:42.616Z,44.98
2019-03-27T01:49:42.606Z,44.78
2019-03-27T01:50:42.595Z,44.45
2019-03-27T01:51:42.583Z,45.91
2019-03-27T01:52:42.573Z,44.45
2019-03-27T01:53:42.562Z,44.45
2019-03-27T01:54:42.548Z,45.17
2019-03-27T01:55:42.542Z,44.76
2019-03-27T01:56:42.527Z,44.24
2019-03-27T01:57:42.530Z,45.27
2019-03-27T01:58:42.514Z,44.45
2019-03-27T01:59:42.494Z,45.50
2019-03-27T02:00:42.490Z,45.50
2019-03-27T02:01:42.471Z,46.11
2019-03-27T02:02:42.466Z,45.81
2019-03-27T02:03:42.456Z,46.22
2019-03-27T02:04:42.441Z,46.11
2019-03-27T02:05:42.429Z,46.53
2019-03-27T02:06:42.428Z,46.83
2019-03-27T02:07:42.407Z,46.62
2019-03-27T02:08:42.396Z,46.53
2019-03-27T02:09:42.387Z,46.22
2019-03-27T02:10:42.373Z,46.42
2019-03-27T02:11:42.362Z,46.42
2019-03-27T02:12:42.360Z,46.73
2019-03-27T02:13:42.348Z,47.47
2019-03-27T02:14:42.333Z,47.47
2019-03-27T02:15:42.319Z,47.47
2019-03-27T02:16:42.308Z,47.24
2019-03-27T02:17:42.304Z,47.78
2019-03-27T02:18:42.283Z,48.17
2019-03-27T02:19:42.274Z,48.09
2019-03-27T02:20:42.264Z,47.58
2019-03-27T02:21:42.281Z,47.58
2019-03-27T02:22:42.245Z,48.09
2019-03-27T02:23:42.234Z,47.99
2019-03-27T02:24:42.222Z,47.96
2019-03-27T02:25:42.208Z,48.09
2019-03-27T02:26:42.199Z,47.99
2019-03-27T02:27:42.187Z,48.17
2019-03-27T02:28:42.176Z,48.17
2019-03-27T02:29:42.165Z,48.81
2019-03-27T02:30:42.156Z,48.50
2019-03-27T02:31:42.151Z,48.81
2019-03-27T02:32:42.175Z,48.50
2019-03-27T02:33:42.122Z,48.50
2019-03-27T02:34:42.119Z,48.60
2019-03-27T02:35:42.102Z,49.24
2019-03-27T02:36:42.090Z,49.01
2019-03-27T02:37:42.084Z,49.55
2019-03-27T02:38:42.071Z,49.01
2019-03-27T02:39:42.058Z,48.81
2019-03-27T02:40:42.044Z,48.99
2019-03-27T02:41:42.036Z,48.79
2019-03-27T02:42:42.020Z,48.47
2019-03-27T02:43:42.018Z,48.79
2019-03-27T02:44:42.000Z,48.68
2019-03-27T02:45:41.987Z,48.47
2019-03-27T02:46:41.975Z,48.68
2019-03-27T02:47:41.968Z,49.40
2019-03-27T02:48:41.958Z,49.52
2019-03-27T02:49:41.941Z,49.73
2019-03-27T02:50:41.934Z,50.04
2019-03-27T02:51:41.930Z,49.73
2019-03-27T02:52:41.910Z,49.63
2019-03-27T02:53:41.902Z,49.43
2019-03-27T02:54:41.890Z,49.84
2019-03-27T02:55:41.877Z,50.35
2019-03-27T02:56:41.864Z,50.04
2019-03-27T02:57:41.855Z,50.24
2019-03-27T02:58:41.849Z,50.14
2019-03-27T02:59:41.918Z,50.45
2019-03-27T03:00:41.822Z,50.56
2019-03-27T03:01:41.813Z,50.56
2019-03-27T03:02:41.817Z,50.45
2019-03-27T03:03:41.789Z,50.76
2019-03-27T03:04:41.784Z,50.76
2019-03-27T03:05:41.768Z,50.96
2019-03-27T03:06:41.759Z,50.76
2019-03-27T03:07:41.743Z,51.20
2019-03-27T03:08:41.735Z,51.81
2019-03-27T03:09:41.721Z,51.92
2019-03-27T03:10:45.230Z,51.40
2019-03-27T03:11:41.707Z,51.81
2019-03-27T03:12:41.688Z,51.73
2019-03-27T03:13:41.679Z,51.81
2019-03-27T03:14:41.670Z,51.71
2019-03-27T03:15:41.657Z,51.92
2019-03-27T03:16:43.306Z,51.81
2019-03-27T03:17:41.636Z,51.92
2019-03-27T03:18:41.624Z,51.71
2019-03-27T03:19:41.609Z,52.01
2019-03-27T03:20:41.604Z,51.79
2019-03-27T03:21:41.591Z,51.58
2019-03-27T03:22:41.603Z,51.68
2019-03-27T03:23:41.647Z,51.92
2019-03-27T03:24:41.557Z,52.01
2019-03-27T03:25:41.544Z,51.81
2019-03-27T03:26:41.532Z,51.37
2019-03-27T03:27:41.521Z,51.40
2019-03-27T03:28:41.516Z,51.20
2019-03-27T03:29:41.499Z,50.96
2019-03-27T03:30:41.489Z,51.07
2019-03-27T03:31:41.480Z,51.30
2019-03-27T03:32:41.474Z,50.78
2019-03-27T03:33:41.485Z,50.96
2019-03-27T03:34:41.469Z,50.89
2019-03-27T03:35:41.441Z,50.89
2019-03-27T03:36:41.425Z,51.09
2019-03-27T03:37:41.417Z,51.81
2019-03-27T03:38:41.413Z,51.81
2019-03-27T03:39:41.394Z,51.50
2019-03-27T03:40:41.394Z,51.73
2019-03-27T03:41:41.409Z,51.84
2019-03-27T03:42:41.363Z,51.81
2019-03-27T03:43:41.348Z,51.50
2019-03-27T03:44:41.340Z,51.40
2019-03-27T03:45:41.324Z,51.30
2019-03-27T03:46:58.355Z,51.73
2019-03-27T03:47:42.307Z,51.12
2019-03-27T03:48:41.288Z,51.73
2019-03-27T03:49:41.277Z,51.22
2019-03-27T03:50:41.272Z,51.22
2019-03-27T03:51:41.276Z,51.22
2019-03-27T03:52:45.543Z,51.22
2019-03-27T03:53:41.239Z,51.53
2019-03-27T03:54:41.229Z,51.94
2019-03-27T03:55:41.220Z,51.30
2019-03-27T03:56:41.204Z,51.12
2019-03-27T03:57:41.189Z,51.42
2019-03-27T03:58:41.180Z,51.55
2019-03-27T03:59:41.168Z,51.96
2019-03-27T04:00:41.158Z,51.63
2019-03-27T04:01:41.146Z,50.68
2019-03-27T04:02:41.135Z,50.68
2019-03-27T04:03:41.136Z,50.89
2019-03-27T04:04:41.123Z,50.89
2019-03-27T04:05:41.105Z,50.91
2019-03-27T04:06:41.089Z,50.81
2019-03-27T04:07:41.079Z,51.22
2019-03-27T04:08:41.066Z,51.42
2019-03-27T04:09:41.054Z,51.42
2019-03-27T04:10:41.056Z,51.32
2019-03-27T04:11:41.116Z,51.84
2019-03-27T04:12:41.027Z,51.86
2019-03-27T04:13:41.080Z,51.86
2019-03-27T04:14:40.998Z,51.96
2019-03-27T04:15:41.010Z,51.96
2019-03-27T04:16:40.976Z,51.55
2019-03-27T04:17:40.964Z,51.86
2019-03-27T04:18:40.952Z,52.04
2019-03-27T04:19:40.947Z,51.71
2019-03-27T04:20:40.932Z,51.09
2019-03-27T04:21:40.921Z,51.61
2019-03-27T04:22:40.911Z,51.84
2019-03-27T04:23:40.900Z,52.04
2019-03-27T04:24:40.888Z,51.84
2019-03-27T04:26:07.217Z,51.73
2019-03-27T04:26:41.862Z,51.94
2019-03-27T04:27:40.862Z,52.04
2019-03-27T04:28:40.845Z,52.14
2019-03-27T04:29:40.833Z,51.84
2019-03-27T04:30:40.827Z,52.04
2019-03-27T04:31:40.807Z,51.84
2019-03-27T04:32:40.793Z,52.12
2019-03-27T04:33:40.800Z,51.73
2019-03-27T04:34:40.781Z,51.73
2019-03-27T04:35:40.762Z,51.73
2019-03-27T04:36:40.755Z,52.76
2019-03-27T04:37:40.742Z,51.84
2019-03-27T04:38:40.730Z,51.73
2019-03-27T04:39:40.721Z,51.84
2019-03-27T04:40:40.719Z,52.04
2019-03-27T04:41:40.701Z,52.04
2019-03-27T04:42:40.693Z,51.73
2019-03-27T04:43:40.682Z,52.04
2019-03-27T04:44:40.661Z,51.84
2019-03-27T04:45:40.654Z,51.71
2019-03-27T04:46:40.642Z,51.40
2019-03-27T04:47:40.639Z,51.09
2019-03-27T04:48:40.618Z,50.70
2019-03-27T04:49:40.603Z,51.73
2019-03-27T04:50:40.598Z,51.53
2019-03-27T04:51:40.584Z,51.84
2019-03-27T04:52:40.571Z,51.32
2019-03-27T04:53:40.561Z,51.32
2019-03-27T04:54:40.551Z,51.32
2019-03-27T04:55:40.539Z,52.04
2019-03-27T04:56:40.527Z,51.94
2019-03-27T04:57:40.520Z,52.14
2019-03-27T04:58:40.508Z,51.84
2019-03-27T04:59:40.502Z,51.63
2019-03-27T05:00:40.487Z,51.71
2019-03-27T05:01:40.469Z,51.20
2019-03-27T05:02:40.466Z,51.92
2019-03-27T05:03:40.471Z,51.84
2019-03-27T05:04:40.450Z,51.73
2019-03-27T05:05:40.431Z,51.94
2019-03-27T05:06:40.430Z,51.76
2019-03-27T05:07:40.405Z,51.65
2019-03-27T05:08:40.395Z,51.84
2019-03-27T05:09:40.383Z,51.84
2019-03-27T05:10:40.374Z,51.73
2019-03-27T05:11:40.365Z,51.73
2019-03-27T05:12:40.369Z,52.14
2019-03-27T05:13:40.342Z,51.63
2019-03-27T05:14:40.331Z,51.94
2019-03-27T05:15:40.314Z,51.71
2019-03-27T05:16:40.318Z,51.53
2019-03-27T05:17:46.351Z,51.32
2019-03-27T05:18:41.302Z,51.40
2019-03-27T05:19:40.311Z,51.40
2019-03-27T05:20:40.268Z,50.68
2019-03-27T05:21:40.254Z,51.40
2019-03-27T05:22:40.235Z,51.20
2019-03-27T05:23:40.224Z,51.09
2019-03-27T05:24:40.212Z,51.20
2019-03-27T05:25:40.203Z,51.30
2019-03-27T05:26:40.192Z,51.61
2019-03-27T05:27:40.185Z,50.78
2019-03-27T05:28:40.167Z,50.68
2019-03-27T05:29:40.164Z,50.58
2019-03-27T05:30:40.155Z,50.56
2019-03-27T05:31:40.131Z,50.48
2019-03-27T05:32:40.121Z,50.86
2019-03-27T05:33:40.112Z,50.99
2019-03-27T05:34:40.108Z,50.24
2019-03-27T05:35:40.089Z,50.24
2019-03-27T05:36:40.080Z,50.68
2019-03-27T05:37:40.070Z,50.68
2019-03-27T05:38:40.057Z,50.76
2019-03-27T05:39:40.062Z,50.35
2019-03-27T05:40:40.037Z,50.45
2019-03-27T05:41:40.024Z,50.35
2019-03-27T05:42:40.014Z,50.04
2019-03-27T05:43:40.015Z,49.46
2019-03-27T05:44:39.993Z,48.08
2019-03-27T05:45:39.982Z,46.58
2019-03-27T05:46:39.973Z,45.64
2019-03-27T05:47:39.974Z,45.64
2019-03-27T05:48:39.953Z,43.96
2019-03-27T05:49:39.958Z,44.59
2019-03-27T05:50:39.924Z,44.17
2019-03-27T05:51:39.916Z,42.90
2019-03-27T05:52:39.906Z,42.45
2019-03-27T05:53:39.898Z,43.84
2019-03-27T05:54:39.881Z,43.71
2019-03-27T05:55:39.874Z,43.71
2019-03-27T05:56:39.861Z,43.41
2019-03-27T05:57:39.851Z,44.45
2019-03-27T05:58:39.833Z,43.82
2019-03-27T05:59:39.831Z,43.94
2019-03-27T06:00:39.819Z,43.30
2019-03-27T06:01:39.803Z,43.04
2019-03-27T06:02:39.793Z,41.80
2019-03-27T06:03:39.780Z,41.80
2019-03-27T06:04:39.769Z,41.82
2019-03-27T06:05:39.764Z,41.82
2019-03-27T06:06:39.750Z,41.41
2019-03-27T06:07:39.918Z,42.24
2019-03-27T06:08:39.783Z,43.06
2019-03-27T06:09:39.740Z,41.82
2019-03-27T06:10:39.802Z,41.82
2019-03-27T06:11:39.724Z,41.28
2019-03-27T06:12:39.716Z,41.19
2019-03-27T06:13:39.825Z,41.08
2019-03-27T06:14:39.751Z,41.27
2019-03-27T06:15:39.792Z,41.28
2019-03-27T06:16:39.691Z,41.63
2019-03-27T06:17:39.710Z,42.22
2019-03-27T06:18:39.736Z,40.43
2019-03-27T06:19:39.682Z,39.66
2019-03-27T06:20:39.609Z,39.78
2019-03-27T06:21:40.251Z,39.38
2019-03-27T06:22:39.780Z,40.86
2019-03-27T06:23:39.794Z,39.50
2019-03-27T06:24:39.571Z,39.38
2019-03-27T06:25:39.544Z,38.93
2019-03-27T06:26:39.620Z,38.83
2019-03-27T06:27:39.516Z,38.97
2019-03-27T06:28:39.527Z,39.40
2019-03-27T06:29:39.522Z,39.99
2019-03-27T06:30:39.488Z,39.28
2019-03-27T06:31:39.471Z,39.89
2019-03-27T06:32:39.456Z,39.58
2019-03-27T06:33:39.445Z,39.66
2019-03-27T06:34:39.434Z,39.15
2019-03-27T06:35:39.429Z,39.14
2019-03-27T06:36:39.414Z,38.09
2019-03-27T06:37:39.409Z,39.42
2019-03-27T06:38:39.400Z,38.41
2019-03-27T06:39:39.386Z,38.53
2019-03-27T06:40:39.799Z,37.58
2019-03-27T06:41:39.361Z,37.26
2019-03-27T06:42:39.352Z,39.40
2019-03-27T06:43:39.336Z,40.64
2019-03-27T06:44:39.342Z,39.48
2019-03-27T06:45:39.319Z,39.28
2019-03-27T06:46:39.313Z,40.70
2019-03-27T06:47:39.296Z,39.10
2019-03-27T06:48:39.279Z,38.53
2019-03-27T06:49:39.271Z,40.36
2019-03-27T06:50:39.261Z,39.83
2019-03-27T06:51:40.470Z,39.53
2019-03-27T06:52:39.247Z,39.36
2019-03-27T06:53:39.225Z,41.35
2019-03-27T06:54:39.236Z,41.37
2019-03-27T06:55:39.200Z,42.04
2019-03-27T06:56:39.192Z,41.13
2019-03-27T06:57:39.186Z,41.63
2019-03-27T06:58:39.171Z,40.78
2019-03-27T06:59:39.158Z,39.71
2019-03-27T07:00:39.149Z,39.00
2019-03-27T07:01:39.134Z,39.14
2019-03-27T07:02:39.127Z,39.95
2019-03-27T07:03:39.141Z,40.74
2019-03-27T07:04:39.117Z,40.60
2019-03-27T07:05:39.094Z,39.83
2019-03-27T07:06:39.130Z,38.52
2019-03-27T07:07:39.073Z,36.25
2019-03-27T07:08:39.062Z,37.22
2019-03-27T07:09:42.279Z,36.52
2019-03-27T07:10:39.041Z,35.17
2019-03-27T07:11:39.040Z,34.95
2019-03-27T07:12:39.014Z,34.05
2019-03-27T07:13:39.011Z,34.25
2019-03-27T07:14:38.996Z,35.02
2019-03-27T07:15:38.987Z,36.37
2019-03-27T07:16:38.976Z,36.30
2019-03-27T07:17:38.990Z,37.26
2019-03-27T07:18:40.417Z,36.29
2019-03-27T07:19:38.939Z,34.80
2019-03-27T07:20:41.060Z,34.27
2019-03-27T07:21:38.926Z,35.21
2019-03-27T07:22:38.909Z,34.50
2019-03-27T07:23:38.918Z,34.53
2019-03-27T07:24:38.887Z,34.91
2019-03-27T07:25:38.871Z,35.13
2019-03-27T07:26:38.887Z,35.55
2019-03-27T07:27:38.876Z,34.30
2019-03-27T07:28:38.839Z,34.69
2019-03-27T07:29:38.823Z,34.42
2019-03-27T07:30:38.823Z,34.64
2019-03-27T07:31:38.804Z,36.43
2019-03-27T07:32:38.844Z,36.66
2019-03-27T07:33:38.782Z,36.56
2019-03-27T07:34:39.099Z,36.56
2019-03-27T07:35:38.779Z,37.92
2019-03-27T07:36:38.770Z,36.43
2019-03-27T07:37:38.739Z,35.99
2019-03-27T07:38:38.751Z,35.21
2019-03-27T07:39:38.717Z,35.90
2019-03-27T07:40:38.706Z,35.35
2019-03-27T07:41:38.746Z,34.64
2019-03-27T07:42:38.680Z,33.61
2019-03-27T07:43:38.673Z,35.16
2019-03-27T07:44:38.659Z,36.21
2019-03-27T07:45:38.651Z,35.02
2019-03-27T07:46:38.650Z,34.28
2019-03-27T07:47:38.624Z,34.80
2019-03-27T07:48:38.712Z,33.71
2019-03-27T07:49:38.636Z,33.94
2019-03-27T07:50:38.594Z,34.39
2019-03-27T07:51:38.584Z,35.04
2019-03-27T07:52:38.575Z,34.77
2019-03-27T07:54:47.636Z,35.42
2019-03-27T07:55:47.455Z,35.64
2019-03-27T07:57:18.040Z,34.92
2019-03-27T07:58:17.998Z,34.52
2019-03-27T07:59:49.814Z,35.46
2019-03-27T08:00:48.766Z,35.90
2019-03-27T08:02:19.167Z,36.21
2019-03-27T08:03:19.093Z,35.26
2019-03-27T08:04:19.089Z,36.08
2019-03-27T08:05:19.061Z,34.95
2019-03-27T08:06:19.075Z,35.49
2019-03-27T08:07:26.618Z,36.10
2019-03-27T08:08:20.053Z,36.51
2019-03-27T08:09:19.015Z,36.02
2019-03-27T08:10:19.010Z,36.61
2019-03-27T08:11:19.057Z,36.53
2019-03-27T08:12:18.985Z,37.10
2019-03-27T08:13:18.974Z,36.36
2019-03-27T08:14:19.559Z,36.47
2019-03-27T08:15:18.962Z,37.00
2019-03-27T08:16:18.939Z,37.23
2019-03-27T08:17:18.943Z,38.67
2019-03-27T08:18:18.926Z,38.46
2019-03-27T08:19:18.914Z,37.51
2019-03-27T08:20:18.895Z,38.36
2019-03-27T08:21:18.887Z,38.04
2019-03-27T08:22:18.872Z,37.93
2019-03-27T08:23:18.871Z,37.59
2019-03-27T08:24:18.858Z,36.87
2019-03-27T08:25:18.852Z,36.95
2019-03-27T08:26:18.859Z,36.22
2019-03-27T08:27:18.815Z,37.17
2019-03-27T08:28:18.803Z,38.20
2019-03-27T08:29:18.807Z,37.39
2019-03-27T08:30:18.785Z,36.44
2019-03-27T08:31:18.774Z,37.98
2019-03-27T08:32:18.819Z,38.07
2019-03-27T08:33:18.754Z,37.56
2019-03-27T08:34:18.744Z,37.32
2019-03-27T08:35:18.743Z,35.95
2019-03-27T08:36:18.719Z,34.92
2019-03-27T08:37:18.710Z,34.79
2019-03-27T08:38:18.700Z,34.53
2019-03-27T08:39:18.687Z,34.95
2019-03-27T08:40:18.676Z,35.33
2019-03-27T08:41:18.665Z,36.05
2019-03-27T08:42:18.656Z,36.19
2019-03-27T08:43:21.524Z,35.73
2019-03-27T08:44:18.630Z,33.93
2019-03-27T08:45:18.622Z,33.21
2019-03-27T08:46:18.620Z,32.75
2019-03-27T08:47:18.600Z,31.88
2019-03-27T08:48:18.644Z,34.60
2019-03-27T08:49:22.318Z,35.77
2019-03-27T08:50:18.560Z,35.75
2019-03-27T08:51:18.557Z,35.92
2019-03-27T08:52:18.541Z,35.51
2019-03-27T08:53:18.532Z,35.85
2019-03-27T08:54:18.520Z,36.88
2019-03-27T08:55:18.523Z,36.51
2019-03-27T08:56:18.500Z,34.64
2019-03-27T08:57:18.487Z,36.07
2019-03-27T08:58:18.479Z,36.85
2019-03-27T08:59:18.487Z,35.80
2019-03-27T09:00:21.286Z,35.17
2019-03-27T09:01:18.452Z,34.50
2019-03-27T09:02:18.436Z,34.86
2019-03-27T09:03:18.506Z,34.86
2019-03-27T09:04:18.469Z,34.03
2019-03-27T09:05:18.398Z,33.48
2019-03-27T09:06:18.497Z,32.41
2019-03-27T09:07:18.379Z,32.70
2019-03-27T09:08:18.392Z,32.64
2019-03-27T09:09:18.361Z,32.34
2019-03-27T09:10:18.349Z,32.44
2019-03-27T09:11:18.338Z,32.53
2019-03-27T09:12:18.331Z,32.64
2019-03-27T09:13:18.415Z,33.67
2019-03-27T09:14:18.313Z,32.64
2019-03-27T09:15:18.399Z,32.57
2019-03-27T09:16:18.392Z,34.22
2019-03-27T09:17:18.270Z,34.50
2019-03-27T09:18:18.361Z,34.30
2019-03-27T09:19:18.443Z,33.04
2019-03-27T09:20:18.298Z,34.13
2019-03-27T09:21:18.281Z,35.94
2019-03-27T09:22:18.248Z,36.19
2019-03-27T09:23:18.248Z,36.91
2019-03-27T09:24:18.234Z,37.35
2019-03-27T09:25:18.221Z,37.10
2019-03-27T09:26:18.201Z,38.76
2019-03-27T09:27:18.198Z,39.24
2019-03-27T09:28:18.298Z,38.10
2019-03-27T09:29:18.193Z,37.88
2019-03-27T09:30:18.140Z,38.00
2019-03-27T09:31:18.158Z,38.20
2019-03-27T09:32:18.120Z,38.41
2019-03-27T09:33:18.093Z,37.05
2019-03-27T09:34:18.088Z,36.21
2019-03-27T09:35:18.080Z,35.88
2019-03-27T09:36:18.069Z,36.19
2019-03-27T09:37:18.051Z,36.49
2019-03-27T09:38:18.051Z,36.10
2019-03-27T09:39:18.038Z,35.86
2019-03-27T09:40:18.058Z,36.17
2019-03-27T09:41:21.249Z,34.74
2019-03-27T09:42:18.005Z,35.01
2019-03-27T09:43:17.997Z,35.16
2019-03-27T09:44:17.977Z,35.80
2019-03-27T09:45:18.050Z,37.12
2019-03-27T09:46:17.993Z,35.88
2019-03-27T09:47:17.953Z,36.12
2019-03-27T09:48:18.027Z,35.72
2019-03-27T09:49:17.928Z,36.24
2019-03-27T09:50:17.915Z,36.87
2019-03-27T09:51:17.903Z,36.41
2019-03-27T09:52:17.899Z,35.86
2019-03-27T09:53:17.886Z,35.94
2019-03-27T09:54:17.870Z,35.80
2019-03-27T09:55:17.862Z,34.74
2019-03-27T09:56:19.338Z,34.64
2019-03-27T09:57:17.834Z,34.75
2019-03-27T09:58:17.840Z,35.72
2019-03-27T09:59:17.824Z,34.79
2019-03-27T10:00:17.805Z,34.97
2019-03-27T10:01:17.804Z,34.92
2019-03-27T10:02:17.784Z,36.76
2019-03-27T10:03:17.768Z,36.58
2019-03-27T10:04:17.761Z,37.07
2019-03-27T10:05:17.749Z,36.68
2019-03-27T10:06:17.736Z,38.37
2019-03-27T10:07:17.748Z,39.40
2019-03-27T10:08:17.714Z,37.66
2019-03-27T10:09:17.703Z,38.37
2019-03-27T10:10:17.697Z,38.88
2019-03-27T10:11:17.684Z,38.45
2019-03-27T10:12:17.672Z,37.81
2019-03-27T10:13:17.658Z,37.18
2019-03-27T10:14:17.658Z,36.88
2019-03-27T10:15:17.642Z,38.05
2019-03-27T10:16:17.631Z,37.95
2019-03-27T10:17:17.614Z,37.85
2019-03-27T10:18:17.628Z,38.07
2019-03-27T10:19:17.613Z,37.32
2019-03-27T10:20:17.692Z,36.98
2019-03-27T10:21:17.589Z,36.36
2019-03-27T10:22:17.562Z,36.12
2019-03-27T10:23:17.551Z,36.15
2019-03-27T10:24:17.567Z,37.34
2019-03-27T10:25:17.532Z,37.24
2019-03-27T10:26:17.535Z,36.44
2019-03-27T10:27:17.526Z,34.79
2019-03-27T10:28:17.506Z,34.88
2019-03-27T10:29:17.517Z,34.64
2019-03-27T10:30:17.475Z,33.16
2019-03-27T10:31:17.471Z,32.93
2019-03-27T10:32:17.454Z,32.87
2019-03-27T10:33:17.452Z,32.56
2019-03-27T10:34:17.429Z,31.62
2019-03-27T10:35:17.421Z,31.59
2019-03-27T10:36:17.434Z,31.87
2019-03-27T10:37:17.404Z,34.66
2019-03-27T10:38:17.465Z,33.09
2019-03-27T10:39:17.389Z,31.75
2019-03-27T10:40:17.377Z,32.69
2019-03-27T10:41:17.502Z,34.40
2019-03-27T10:42:17.355Z,34.55
2019-03-27T10:43:17.368Z,34.05
2019-03-27T10:44:17.660Z,34.03
2019-03-27T10:45:17.316Z,34.66
2019-03-27T10:46:17.304Z,35.19
2019-03-27T10:47:17.316Z,36.05
2019-03-27T10:48:17.281Z,36.34
2019-03-27T10:49:17.271Z,35.70
2019-03-27T10:50:18.163Z,35.80
2019-03-27T10:51:17.403Z,35.39
2019-03-27T10:52:17.252Z,36.90
2019-03-27T10:53:17.226Z,37.38
2019-03-27T10:54:17.217Z,37.08
2019-03-27T10:55:17.210Z,37.15
2019-03-27T10:56:17.257Z,36.94
2019-03-27T10:57:17.260Z,36.85
2019-03-27T10:58:17.194Z,36.59
2019-03-27T10:59:17.271Z,35.06
2019-03-27T11:00:17.297Z,36.08
2019-03-27T11:01:17.159Z,36.49
2019-03-27T11:02:17.154Z,36.07
2019-03-27T11:03:17.121Z,36.32
2019-03-27T11:04:17.107Z,35.63
2019-03-27T11:05:17.106Z,35.16
2019-03-27T11:06:17.093Z,34.54
2019-03-27T11:07:17.074Z,34.47
2019-03-27T11:08:17.065Z,33.23
2019-03-27T11:09:17.080Z,33.92
2019-03-27T11:10:17.058Z,33.84
2019-03-27T11:11:17.038Z,34.17
2019-03-27T11:12:17.026Z,34.50
2019-03-27T11:13:17.020Z,34.61
2019-03-27T11:14:17.061Z,35.11
2019-03-27T11:15:16.990Z,33.98
2019-03-27T11:16:16.990Z,33.13
2019-03-27T11:17:17.179Z,32.89
2019-03-27T11:18:16.960Z,34.49
2019-03-27T11:19:17.008Z,33.97
2019-03-27T11:20:29.947Z,34.66
2019-03-27T11:21:17.927Z,34.61
2019-03-27T11:22:16.948Z,34.50
2019-03-27T11:23:16.956Z,34.79
2019-03-27T11:24:16.900Z,34.12
2019-03-27T11:25:16.889Z,34.59
2019-03-27T11:26:16.882Z,33.53
2019-03-27T11:27:16.914Z,32.64
2019-03-27T11:28:16.904Z,34.41
2019-03-27T11:29:16.856Z,34.67
2019-03-27T11:30:16.853Z,33.44
2019-03-27T11:31:16.827Z,32.84
2019-03-27T11:32:16.814Z,32.41
2019-03-27T11:33:16.894Z,33.01
2019-03-27T11:34:16.834Z,34.05
2019-03-27T11:35:16.779Z,32.93
2019-03-27T11:36:16.774Z,32.06
2019-03-27T11:37:16.762Z,30.64
2019-03-27T11:38:16.956Z,30.44
2019-03-27T11:39:16.750Z,32.63
2019-03-27T11:40:16.725Z,31.99
2019-03-27T11:41:16.767Z,32.67
2019-03-27T11:42:16.713Z,32.84
2019-03-27T11:43:16.730Z,32.39
2019-03-27T11:44:16.735Z,31.62
2019-03-27T11:45:16.677Z,31.49
2019-03-27T11:46:16.666Z,31.74
2019-03-27T11:47:16.681Z,30.73
2019-03-27T11:48:16.725Z,30.08
2019-03-27T11:49:16.817Z,29.41
2019-03-27T11:50:16.789Z,30.67
2019-03-27T11:51:16.636Z,30.57
2019-03-27T11:52:16.609Z,31.03
2019-03-27T11:53:16.628Z,30.79
2019-03-27T11:54:16.632Z,31.59
2019-03-27T11:55:16.577Z,31.46
2019-03-27T11:56:16.628Z,30.08
2019-03-27T11:57:16.568Z,29.47
2019-03-27T11:58:16.740Z,30.05
2019-03-27T11:59:16.610Z,30.16
2019-03-27T12:00:16.541Z,31.75
2019-03-27T12:01:16.519Z,33.01
2019-03-27T12:02:16.704Z,32.89
2019-03-27T12:03:16.490Z,33.04
2019-03-27T12:04:16.482Z,34.12
2019-03-27T12:05:16.495Z,32.69
2019-03-27T12:06:16.495Z,33.61
2019-03-27T12:07:16.457Z,31.39
2019-03-27T12:08:16.500Z,30.60
2019-03-27T12:09:16.426Z,30.55
2019-03-27T12:10:16.420Z,29.53
2019-03-27T12:11:16.405Z,30.35
2019-03-27T12:12:16.394Z,30.18
2019-03-27T12:13:16.407Z,30.04
2019-03-27T12:14:16.386Z,29.69
2019-03-27T12:15:16.525Z,30.16
2019-03-27T12:16:16.427Z,30.11
2019-03-27T12:17:16.345Z,32.49
2019-03-27T12:18:16.355Z,32.63
2019-03-27T12:19:16.336Z,30.32
2019-03-27T12:20:16.333Z,30.50
2019-03-27T12:21:16.343Z,31.55
2019-03-27T12:22:16.377Z,34.20
2019-03-27T12:23:16.354Z,33.95
2019-03-27T12:24:16.286Z,32.79
2019-03-27T12:25:16.260Z,33.76
2019-03-27T12:26:16.253Z,32.64
2019-03-27T12:27:16.559Z,32.82
2019-03-27T12:28:16.256Z,31.88
2019-03-27T12:29:18.182Z,30.93
2019-03-27T12:30:16.298Z,29.71
2019-03-27T12:31:16.251Z,29.68
2019-03-27T12:32:16.326Z,29.50
2019-03-27T12:33:16.301Z,30.51
2019-03-27T12:34:16.272Z,30.96
2019-03-27T12:35:16.183Z,31.93
2019-03-27T12:36:16.142Z,32.95
2019-03-27T12:37:16.131Z,31.90
2019-03-27T12:38:16.132Z,30.82
2019-03-27T12:39:16.109Z,30.28
2019-03-27T12:40:16.142Z,30.99
2019-03-27T12:41:16.122Z,30.47
2019-03-27T12:42:16.214Z,30.04
2019-03-27T12:43:16.166Z,29.57
2019-03-27T12:44:16.071Z,30.57
2019-03-27T12:45:16.072Z,29.93
2019-03-27T12:46:16.161Z,30.58
2019-03-27T12:47:16.062Z,29.83
2019-03-27T12:48:16.106Z,27.91
2019-03-27T12:49:16.012Z,29.75
2019-03-27T12:50:16.072Z,28.80
2019-03-27T12:51:16.296Z,27.40
2019-03-27T12:52:16.128Z,29.47
2019-03-27T12:53:16.073Z,29.86
2019-03-27T12:54:15.964Z,29.45
2019-03-27T12:55:15.981Z,29.32